sensor_id;sensor_type;location;lat;lon;timestamp;P1;durP1;ratioP1;P2;durP2;ratioP2
24163;SDS011;12319;49.204;8.116;2023-02-28T00:01:01;3.83;;;2.00;;
24163;SDS011;12319;49.204;8.116;2023-02-28T00:03:27;4.03;;;1.77;;
24163;SDS011;12319;49.204;8.116;2023-02-28T00:05:52;4.57;;;2.20;;
24163;SDS011;12319;49.204;8.116;2023-02-28T00:08:18;3.78;;;2.00;;
24163;SDS011;12319;49.204;8.116;2023-02-28T00:10:43;3.50;;;1.90;;
24163;SDS011;12319;49.204;8.116;2023-02-28T00:13:09;3.43;;;1.80;;
24163;SDS011;12319;49.204;8.116;2023-02-28T00:15:34;3.15;;;1.80;;
24163;SDS011;12319;49.204;8.116;2023-02-28T00:18:00;3.67;;;1.93;;
24163;SDS011;12319;49.204;8.116;2023-02-28T00:20:26;3.40;;;2.00;;
24163;SDS011;12319;49.204;8.116;2023-02-28T00:22:52;2.73;;;1.60;;
24163;SDS011;12319;49.204;8.116;2023-02-28T00:25:19;4.00;;;1.90;;
24163;SDS011;12319;49.204;8.116;2023-02-28T00:27:46;4.32;;;1.98;;
24163;SDS011;12319;49.204;8.116;2023-02-28T00:30:14;3.00;;;1.67;;
24163;SDS011;12319;49.204;8.116;2023-02-28T00:32:44;3.90;;;1.80;;
24163;SDS011;12319;49.204;8.116;2023-02-28T00:35:10;3.17;;;1.60;;
24163;SDS011;12319;49.204;8.116;2023-02-28T00:37:36;4.00;;;1.80;;
24163;SDS011;12319;49.204;8.116;2023-02-28T00:40:02;4.43;;;1.98;;
24163;SDS011;12319;49.204;8.116;2023-02-28T00:42:32;3.45;;;1.90;;
24163;SDS011;12319;49.204;8.116;2023-02-28T00:44:58;3.28;;;1.70;;
24163;SDS011;12319;49.204;8.116;2023-02-28T00:47:24;2.83;;;1.60;;
24163;SDS011;12319;49.204;8.116;2023-02-28T00:49:50;3.72;;;2.10;;
24163;SDS011;12319;49.204;8.116;2023-02-28T00:52:16;3.70;;;2.00;;
24163;SDS011;12319;49.204;8.116;2023-02-28T00:54:41;2.93;;;1.60;;
24163;SDS011;12319;49.204;8.116;2023-02-28T00:57:07;3.97;;;1.98;;
24163;SDS011;12319;49.204;8.116;2023-02-28T00:59:32;3.17;;;1.80;;
24163;SDS011;12319;49.204;8.116;2023-02-28T01:01:58;3.65;;;1.90;;
24163;SDS011;12319;49.204;8.116;2023-02-28T01:04:23;3.33;;;1.90;;
24163;SDS011;12319;49.204;8.116;2023-02-28T01:06:49;5.07;;;2.07;;
24163;SDS011;12319;49.204;8.116;2023-02-28T01:09:14;3.45;;;1.80;;
24163;SDS011;12319;49.204;8.116;2023-02-28T01:11:40;6.03;;;2.53;;
24163;SDS011;12319;49.204;8.116;2023-02-28T01:14:09;3.45;;;1.90;;
24163;SDS011;12319;49.204;8.116;2023-02-28T01:16:38;3.13;;;1.77;;
24163;SDS011;12319;49.204;8.116;2023-02-28T01:19:03;4.13;;;1.95;;
24163;SDS011;12319;49.204;8.116;2023-02-28T01:21:29;3.13;;;1.80;;
24163;SDS011;12319;49.204;8.116;2023-02-28T01:23:56;3.13;;;1.75;;
24163;SDS011;12319;49.204;8.116;2023-02-28T01:26:22;6.03;;;2.22;;
24163;SDS011;12319;49.204;8.116;2023-02-28T01:28:49;3.47;;;1.80;;
24163;SDS011;12319;49.204;8.116;2023-02-28T01:31:15;3.72;;;1.95;;
24163;SDS011;12319;49.204;8.116;2023-02-28T01:33:42;4.07;;;2.03;;
24163;SDS011;12319;49.204;8.116;2023-02-28T01:36:13;3.70;;;1.90;;
24163;SDS011;12319;49.204;8.116;2023-02-28T01:38:44;3.38;;;1.98;;
24163;SDS011;12319;49.204;8.116;2023-02-28T01:41:12;2.95;;;1.80;;
24163;SDS011;12319;49.204;8.116;2023-02-28T01:46:08;3.50;;;1.80;;
24163;SDS011;12319;49.204;8.116;2023-02-28T01:48:36;3.65;;;1.92;;
24163;SDS011;12319;49.204;8.116;2023-02-28T01:51:07;3.63;;;1.90;;
24163;SDS011;12319;49.204;8.116;2023-02-28T01:53:39;3.63;;;1.95;;
24163;SDS011;12319;49.204;8.116;2023-02-28T01:56:09;4.20;;;2.20;;
24163;SDS011;12319;49.204;8.116;2023-02-28T01:58:37;3.90;;;2.10;;
24163;SDS011;12319;49.204;8.116;2023-02-28T02:01:03;3.70;;;2.08;;
24163;SDS011;12319;49.204;8.116;2023-02-28T02:03:29;3.85;;;2.10;;
24163;SDS011;12319;49.204;8.116;2023-02-28T02:05:55;3.35;;;1.92;;
24163;SDS011;12319;49.204;8.116;2023-02-28T02:08:25;5.05;;;2.38;;
24163;SDS011;12319;49.204;8.116;2023-02-28T02:10:57;4.60;;;2.30;;
24163;SDS011;12319;49.204;8.116;2023-02-28T02:21:49;4.30;;;2.10;;
24163;SDS011;12319;49.204;8.116;2023-02-28T02:24:48;4.30;;;2.07;;
24163;SDS011;12319;49.204;8.116;2023-02-28T02:38:18;3.83;;;2.17;;
24163;SDS011;12319;49.204;8.116;2023-02-28T02:40:58;4.43;;;2.20;;
24163;SDS011;12319;49.204;8.116;2023-02-28T02:46:47;4.20;;;2.05;;
24163;SDS011;12319;49.204;8.116;2023-02-28T02:49:16;3.70;;;2.10;;
24163;SDS011;12319;49.204;8.116;2023-02-28T02:51:49;5.57;;;2.50;;
24163;SDS011;12319;49.204;8.116;2023-02-28T02:54:17;4.50;;;2.20;;
24163;SDS011;12319;49.204;8.116;2023-02-28T02:56:48;4.55;;;2.30;;
24163;SDS011;12319;49.204;8.116;2023-02-28T02:59:18;6.97;;;2.55;;
24163;SDS011;12319;49.204;8.116;2023-02-28T03:01:48;3.58;;;2.03;;
24163;SDS011;12319;49.204;8.116;2023-02-28T03:04:20;4.50;;;2.20;;
24163;SDS011;12319;49.204;8.116;2023-02-28T03:06:48;4.78;;;2.28;;
24163;SDS011;12319;49.204;8.116;2023-02-28T03:09:15;3.97;;;2.25;;
24163;SDS011;12319;49.204;8.116;2023-02-28T03:11:40;4.60;;;2.35;;
24163;SDS011;12319;49.204;8.116;2023-02-28T03:19:47;4.18;;;2.00;;
24163;SDS011;12319;49.204;8.116;2023-02-28T03:22:50;3.80;;;2.03;;
24163;SDS011;12319;49.204;8.116;2023-02-28T03:28:08;4.10;;;2.10;;
24163;SDS011;12319;49.204;8.116;2023-02-28T03:30:46;5.05;;;2.30;;
24163;SDS011;12319;49.204;8.116;2023-02-28T03:35:49;4.00;;;2.20;;
24163;SDS011;12319;49.204;8.116;2023-02-28T03:38:24;3.60;;;2.07;;
24163;SDS011;12319;49.204;8.116;2023-02-28T03:40:55;3.70;;;2.08;;
24163;SDS011;12319;49.204;8.116;2023-02-28T03:43:28;4.53;;;2.30;;
24163;SDS011;12319;49.204;8.116;2023-02-28T03:45:57;6.30;;;2.78;;
24163;SDS011;12319;49.204;8.116;2023-02-28T03:48:40;4.75;;;2.20;;
24163;SDS011;12319;49.204;8.116;2023-02-28T03:51:15;3.57;;;1.90;;
24163;SDS011;12319;49.204;8.116;2023-02-28T03:53:45;3.53;;;2.03;;
24163;SDS011;12319;49.204;8.116;2023-02-28T03:56:20;3.80;;;2.05;;
24163;SDS011;12319;49.204;8.116;2023-02-28T03:59:07;3.90;;;2.22;;
24163;SDS011;12319;49.204;8.116;2023-02-28T04:01:44;4.75;;;2.40;;
24163;SDS011;12319;49.204;8.116;2023-02-28T04:04:12;5.20;;;2.30;;
24163;SDS011;12319;49.204;8.116;2023-02-28T04:06:39;3.92;;;2.15;;
24163;SDS011;12319;49.204;8.116;2023-02-28T04:09:06;5.28;;;2.42;;
24163;SDS011;12319;49.204;8.116;2023-02-28T04:11:37;3.95;;;2.25;;
24163;SDS011;12319;49.204;8.116;2023-02-28T04:14:05;4.78;;;2.60;;
24163;SDS011;12319;49.204;8.116;2023-02-28T04:16:32;4.63;;;2.10;;
24163;SDS011;12319;49.204;8.116;2023-02-28T04:18:58;4.30;;;2.03;;
24163;SDS011;12319;49.204;8.116;2023-02-28T04:21:31;4.57;;;2.55;;
24163;SDS011;12319;49.204;8.116;2023-02-28T04:23:59;4.93;;;2.13;;
24163;SDS011;12319;49.204;8.116;2023-02-28T04:26:27;4.05;;;2.10;;
24163;SDS011;12319;49.204;8.116;2023-02-28T04:28:57;5.00;;;2.60;;
24163;SDS011;12319;49.204;8.116;2023-02-28T04:31:23;3.97;;;2.08;;
24163;SDS011;12319;49.204;8.116;2023-02-28T04:33:49;5.28;;;2.80;;
24163;SDS011;12319;49.204;8.116;2023-02-28T04:36:14;4.73;;;2.23;;
24163;SDS011;12319;49.204;8.116;2023-02-28T04:38:42;4.50;;;2.20;;
24163;SDS011;12319;49.204;8.116;2023-02-28T04:41:08;3.97;;;2.17;;
24163;SDS011;12319;49.204;8.116;2023-02-28T04:43:34;5.32;;;2.83;;
24163;SDS011;12319;49.204;8.116;2023-02-28T04:46:01;4.70;;;2.40;;
24163;SDS011;12319;49.204;8.116;2023-02-28T04:48:29;4.30;;;2.10;;
24163;SDS011;12319;49.204;8.116;2023-02-28T04:51:00;3.88;;;2.00;;
24163;SDS011;12319;49.204;8.116;2023-02-28T04:53:26;5.17;;;2.40;;
24163;SDS011;12319;49.204;8.116;2023-02-28T04:55:53;3.88;;;2.20;;
24163;SDS011;12319;49.204;8.116;2023-02-28T04:58:19;4.28;;;2.30;;
24163;SDS011;12319;49.204;8.116;2023-02-28T05:00:48;5.03;;;2.63;;
24163;SDS011;12319;49.204;8.116;2023-02-28T05:03:14;6.30;;;3.05;;
24163;SDS011;12319;49.204;8.116;2023-02-28T05:05:39;6.33;;;2.60;;
24163;SDS011;12319;49.204;8.116;2023-02-28T05:08:05;4.60;;;2.30;;
24163;SDS011;12319;49.204;8.116;2023-02-28T05:10:31;4.22;;;2.22;;
24163;SDS011;12319;49.204;8.116;2023-02-28T05:12:56;5.07;;;2.55;;
24163;SDS011;12319;49.204;8.116;2023-02-28T05:15:22;3.35;;;2.00;;
24163;SDS011;12319;49.204;8.116;2023-02-28T05:17:48;5.23;;;2.57;;
24163;SDS011;12319;49.204;8.116;2023-02-28T05:20:14;5.25;;;2.72;;
24163;SDS011;12319;49.204;8.116;2023-02-28T05:22:40;6.03;;;2.60;;
24163;SDS011;12319;49.204;8.116;2023-02-28T05:25:06;6.07;;;2.75;;
24163;SDS011;12319;49.204;8.116;2023-02-28T05:27:33;6.03;;;2.92;;
24163;SDS011;12319;49.204;8.116;2023-02-28T05:29:59;5.27;;;2.33;;
24163;SDS011;12319;49.204;8.116;2023-02-28T05:32:27;5.32;;;2.70;;
24163;SDS011;12319;49.204;8.116;2023-02-28T05:34:53;6.13;;;2.60;;
24163;SDS011;12319;49.204;8.116;2023-02-28T05:37:18;5.13;;;2.73;;
24163;SDS011;12319;49.204;8.116;2023-02-28T05:39:44;4.20;;;2.35;;
24163;SDS011;12319;49.204;8.116;2023-02-28T05:42:10;4.93;;;2.50;;
24163;SDS011;12319;49.204;8.116;2023-02-28T05:44:35;4.57;;;2.40;;
24163;SDS011;12319;49.204;8.116;2023-02-28T05:47:01;4.78;;;2.30;;
24163;SDS011;12319;49.204;8.116;2023-02-28T05:49:26;4.60;;;2.07;;
24163;SDS011;12319;49.204;8.116;2023-02-28T05:51:52;6.38;;;3.00;;
24163;SDS011;12319;49.204;8.116;2023-02-28T05:54:18;5.60;;;2.03;;
24163;SDS011;12319;49.204;8.116;2023-02-28T05:56:43;5.60;;;2.63;;
24163;SDS011;12319;49.204;8.116;2023-02-28T05:59:10;4.47;;;2.00;;
24163;SDS011;12319;49.204;8.116;2023-02-28T06:01:40;4.95;;;2.60;;
24163;SDS011;12319;49.204;8.116;2023-02-28T06:04:10;4.95;;;2.40;;
24163;SDS011;12319;49.204;8.116;2023-02-28T06:06:36;5.77;;;2.80;;
24163;SDS011;12319;49.204;8.116;2023-02-28T06:09:02;4.82;;;3.00;;
24163;SDS011;12319;49.204;8.116;2023-02-28T06:11:28;5.38;;;2.75;;
24163;SDS011;12319;49.204;8.116;2023-02-28T06:13:54;3.67;;;1.87;;
24163;SDS011;12319;49.204;8.116;2023-02-28T06:16:21;4.05;;;2.35;;
24163;SDS011;12319;49.204;8.116;2023-02-28T06:18:47;4.55;;;2.30;;
24163;SDS011;12319;49.204;8.116;2023-02-28T06:21:13;4.30;;;2.30;;
24163;SDS011;12319;49.204;8.116;2023-02-28T06:23:38;4.65;;;2.40;;
24163;SDS011;12319;49.204;8.116;2023-02-28T06:26:04;4.70;;;2.47;;
24163;SDS011;12319;49.204;8.116;2023-02-28T06:28:30;3.97;;;2.13;;
24163;SDS011;12319;49.204;8.116;2023-02-28T06:30:56;6.13;;;3.20;;
24163;SDS011;12319;49.204;8.116;2023-02-28T06:33:22;5.03;;;2.63;;
24163;SDS011;12319;49.204;8.116;2023-02-28T06:35:49;7.77;;;3.17;;
24163;SDS011;12319;49.204;8.116;2023-02-28T06:38:16;5.43;;;2.90;;
24163;SDS011;12319;49.204;8.116;2023-02-28T06:40:43;4.30;;;2.40;;
24163;SDS011;12319;49.204;8.116;2023-02-28T06:43:08;6.43;;;2.87;;
24163;SDS011;12319;49.204;8.116;2023-02-28T06:45:36;4.07;;;1.92;;
24163;SDS011;12319;49.204;8.116;2023-02-28T06:48:02;4.55;;;2.30;;
24163;SDS011;12319;49.204;8.116;2023-02-28T06:50:27;4.55;;;2.28;;
24163;SDS011;12319;49.204;8.116;2023-02-28T06:52:54;6.13;;;2.40;;
24163;SDS011;12319;49.204;8.116;2023-02-28T06:55:20;4.10;;;2.10;;
24163;SDS011;12319;49.204;8.116;2023-02-28T06:57:46;5.07;;;2.50;;
24163;SDS011;12319;49.204;8.116;2023-02-28T07:00:11;5.17;;;2.60;;
24163;SDS011;12319;49.204;8.116;2023-02-28T07:02:37;4.20;;;2.55;;
24163;SDS011;12319;49.204;8.116;2023-02-28T07:05:04;6.47;;;3.03;;
24163;SDS011;12319;49.204;8.116;2023-02-28T07:07:30;4.93;;;2.63;;
24163;SDS011;12319;49.204;8.116;2023-02-28T07:09:55;4.97;;;2.57;;
24163;SDS011;12319;49.204;8.116;2023-02-28T07:12:21;4.80;;;2.70;;
24163;SDS011;12319;49.204;8.116;2023-02-28T07:14:47;6.30;;;3.40;;
24163;SDS011;12319;49.204;8.116;2023-02-28T07:17:12;4.93;;;2.40;;
24163;SDS011;12319;49.204;8.116;2023-02-28T07:19:38;7.40;;;3.00;;
24163;SDS011;12319;49.204;8.116;2023-02-28T07:22:04;5.70;;;2.95;;
24163;SDS011;12319;49.204;8.116;2023-02-28T07:24:30;7.00;;;2.57;;
24163;SDS011;12319;49.204;8.116;2023-02-28T07:26:55;4.57;;;2.38;;
24163;SDS011;12319;49.204;8.116;2023-02-28T07:29:21;5.13;;;2.80;;
24163;SDS011;12319;49.204;8.116;2023-02-28T07:31:47;4.40;;;2.50;;
24163;SDS011;12319;49.204;8.116;2023-02-28T07:34:15;5.35;;;2.83;;
24163;SDS011;12319;49.204;8.116;2023-02-28T07:36:40;5.17;;;2.90;;
24163;SDS011;12319;49.204;8.116;2023-02-28T07:39:06;5.22;;;2.60;;
24163;SDS011;12319;49.204;8.116;2023-02-28T07:41:34;6.07;;;2.80;;
24163;SDS011;12319;49.204;8.116;2023-02-28T07:44:02;5.85;;;2.95;;
24163;SDS011;12319;49.204;8.116;2023-02-28T07:46:28;4.63;;;2.35;;
24163;SDS011;12319;49.204;8.116;2023-02-28T07:48:59;4.93;;;2.50;;
24163;SDS011;12319;49.204;8.116;2023-02-28T07:51:25;4.40;;;2.40;;
24163;SDS011;12319;49.204;8.116;2023-02-28T07:53:51;4.22;;;2.30;;
24163;SDS011;12319;49.204;8.116;2023-02-28T07:56:17;7.20;;;3.38;;
24163;SDS011;12319;49.204;8.116;2023-02-28T07:58:42;6.23;;;3.00;;
24163;SDS011;12319;49.204;8.116;2023-02-28T08:01:08;4.40;;;2.37;;
24163;SDS011;12319;49.204;8.116;2023-02-28T08:03:35;5.47;;;2.75;;
24163;SDS011;12319;49.204;8.116;2023-02-28T08:06:03;5.07;;;2.55;;
24163;SDS011;12319;49.204;8.116;2023-02-28T08:08:29;5.20;;;2.67;;
24163;SDS011;12319;49.204;8.116;2023-02-28T08:10:57;7.28;;;2.80;;
24163;SDS011;12319;49.204;8.116;2023-02-28T08:13:28;6.30;;;3.13;;
24163;SDS011;12319;49.204;8.116;2023-02-28T08:15:54;6.43;;;2.75;;
24163;SDS011;12319;49.204;8.116;2023-02-28T08:18:21;5.47;;;3.00;;
24163;SDS011;12319;49.204;8.116;2023-02-28T08:20:47;5.60;;;2.65;;
24163;SDS011;12319;49.204;8.116;2023-02-28T08:23:13;4.73;;;2.50;;
24163;SDS011;12319;49.204;8.116;2023-02-28T08:25:39;5.40;;;2.70;;
24163;SDS011;12319;49.204;8.116;2023-02-28T08:28:05;6.95;;;3.03;;
24163;SDS011;12319;49.204;8.116;2023-02-28T08:30:30;4.83;;;2.40;;
24163;SDS011;12319;49.204;8.116;2023-02-28T08:32:56;4.10;;;2.17;;
24163;SDS011;12319;49.204;8.116;2023-02-28T08:35:22;4.55;;;2.20;;
24163;SDS011;12319;49.204;8.116;2023-02-28T08:37:48;4.88;;;2.47;;
24163;SDS011;12319;49.204;8.116;2023-02-28T08:40:14;4.50;;;2.30;;
24163;SDS011;12319;49.204;8.116;2023-02-28T08:42:46;4.40;;;2.30;;
24163;SDS011;12319;49.204;8.116;2023-02-28T08:45:13;4.65;;;2.30;;
24163;SDS011;12319;49.204;8.116;2023-02-28T08:47:39;5.43;;;2.42;;
24163;SDS011;12319;49.204;8.116;2023-02-28T08:50:06;4.70;;;2.53;;
24163;SDS011;12319;49.204;8.116;2023-02-28T08:52:32;6.13;;;3.03;;
24163;SDS011;12319;49.204;8.116;2023-02-28T08:54:58;5.97;;;2.70;;
24163;SDS011;12319;49.204;8.116;2023-02-28T08:57:23;4.37;;;2.27;;
24163;SDS011;12319;49.204;8.116;2023-02-28T08:59:51;5.50;;;2.20;;
24163;SDS011;12319;49.204;8.116;2023-02-28T09:02:17;6.22;;;3.00;;
24163;SDS011;12319;49.204;8.116;2023-02-28T09:04:43;5.63;;;2.53;;
24163;SDS011;12319;49.204;8.116;2023-02-28T09:07:10;5.43;;;2.80;;
24163;SDS011;12319;49.204;8.116;2023-02-28T09:09:36;4.50;;;2.25;;
24163;SDS011;12319;49.204;8.116;2023-02-28T09:12:02;4.13;;;1.93;;
24163;SDS011;12319;49.204;8.116;2023-02-28T09:14:28;3.90;;;2.17;;
24163;SDS011;12319;49.204;8.116;2023-02-28T09:16:54;4.40;;;2.28;;
24163;SDS011;12319;49.204;8.116;2023-02-28T09:19:19;5.00;;;2.40;;
24163;SDS011;12319;49.204;8.116;2023-02-28T09:21:45;4.70;;;2.20;;
24163;SDS011;12319;49.204;8.116;2023-02-28T09:24:11;4.55;;;2.10;;
24163;SDS011;12319;49.204;8.116;2023-02-28T09:26:39;4.88;;;2.42;;
24163;SDS011;12319;49.204;8.116;2023-02-28T09:29:05;8.53;;;3.10;;
24163;SDS011;12319;49.204;8.116;2023-02-28T09:31:31;5.47;;;2.10;;
24163;SDS011;12319;49.204;8.116;2023-02-28T09:33:57;4.57;;;2.30;;
24163;SDS011;12319;49.204;8.116;2023-02-28T09:36:24;4.40;;;2.10;;
24163;SDS011;12319;49.204;8.116;2023-02-28T09:38:51;5.70;;;2.63;;
24163;SDS011;12319;49.204;8.116;2023-02-28T09:43:53;6.63;;;2.90;;
24163;SDS011;12319;49.204;8.116;2023-02-28T09:46:29;5.28;;;2.40;;
24163;SDS011;12319;49.204;8.116;2023-02-28T09:49:07;5.47;;;2.70;;
24163;SDS011;12319;49.204;8.116;2023-02-28T09:51:58;5.53;;;2.80;;
24163;SDS011;12319;49.204;8.116;2023-02-28T09:54:26;6.93;;;2.70;;
24163;SDS011;12319;49.204;8.116;2023-02-28T09:56:59;5.85;;;2.95;;
24163;SDS011;12319;49.204;8.116;2023-02-28T09:59:50;4.88;;;2.20;;
24163;SDS011;12319;49.204;8.116;2023-02-28T10:05:13;4.88;;;2.50;;
24163;SDS011;12319;49.204;8.116;2023-02-28T10:08:00;4.97;;;2.50;;
24163;SDS011;12319;49.204;8.116;2023-02-28T10:10:40;5.32;;;2.47;;
24163;SDS011;12319;49.204;8.116;2023-02-28T10:13:33;8.63;;;3.50;;
24163;SDS011;12319;49.204;8.116;2023-02-28T10:16:27;5.18;;;2.80;;
24163;SDS011;12319;49.204;8.116;2023-02-28T10:19:10;4.45;;;2.30;;
24163;SDS011;12319;49.204;8.116;2023-02-28T10:21:47;6.53;;;3.17;;
24163;SDS011;12319;49.204;8.116;2023-02-28T10:24:32;6.53;;;3.53;;
24163;SDS011;12319;49.204;8.116;2023-02-28T10:27:10;6.28;;;3.35;;
24163;SDS011;12319;49.204;8.116;2023-02-28T10:29:40;5.68;;;2.78;;
24163;SDS011;12319;49.204;8.116;2023-02-28T10:32:09;6.63;;;3.10;;
24163;SDS011;12319;49.204;8.116;2023-02-28T10:34:38;6.70;;;2.70;;
24163;SDS011;12319;49.204;8.116;2023-02-28T10:37:03;7.35;;;3.60;;
24163;SDS011;12319;49.204;8.116;2023-02-28T10:42:27;5.88;;;2.90;;
24163;SDS011;12319;49.204;8.116;2023-02-28T10:47:56;5.78;;;3.28;;
24163;SDS011;12319;49.204;8.116;2023-02-28T10:50:51;6.32;;;3.50;;
24163;SDS011;12319;49.204;8.116;2023-02-28T11:01:46;5.47;;;2.75;;
24163;SDS011;12319;49.204;8.116;2023-02-28T11:06:58;5.27;;;2.63;;
24163;SDS011;12319;49.204;8.116;2023-02-28T11:11:55;8.63;;;4.40;;
24163;SDS011;12319;49.204;8.116;2023-02-28T11:14:24;7.93;;;3.88;;
24163;SDS011;12319;49.204;8.116;2023-02-28T11:16:53;9.95;;;5.20;;
24163;SDS011;12319;49.204;8.116;2023-02-28T11:19:21;5.97;;;3.20;;
24163;SDS011;12319;49.204;8.116;2023-02-28T11:21:54;9.63;;;4.40;;
24163;SDS011;12319;49.204;8.116;2023-02-28T11:24:27;6.43;;;3.38;;
24163;SDS011;12319;49.204;8.116;2023-02-28T11:26:58;8.13;;;4.28;;
24163;SDS011;12319;49.204;8.116;2023-02-28T11:29:26;8.10;;;4.30;;
24163;SDS011;12319;49.204;8.116;2023-02-28T11:34:43;7.68;;;3.60;;
24163;SDS011;12319;49.204;8.116;2023-02-28T11:37:12;7.20;;;3.10;;
24163;SDS011;12319;49.204;8.116;2023-02-28T11:39:40;8.32;;;3.70;;
24163;SDS011;12319;49.204;8.116;2023-02-28T11:55:47;9.55;;;4.57;;
24163;SDS011;12319;49.204;8.116;2023-02-28T11:58:23;7.10;;;3.90;;
24163;SDS011;12319;49.204;8.116;2023-02-28T12:01:18;7.25;;;3.72;;
24163;SDS011;12319;49.204;8.116;2023-02-28T12:03:56;10.52;;;5.35;;
24163;SDS011;12319;49.204;8.116;2023-02-28T12:06:57;7.85;;;4.10;;
24163;SDS011;12319;49.204;8.116;2023-02-28T12:15:54;6.60;;;3.38;;
24163;SDS011;12319;49.204;8.116;2023-02-28T12:17:58;8.23;;;4.40;;
24163;SDS011;12319;49.204;8.116;2023-02-28T12:20:54;6.97;;;3.58;;
24163;SDS011;12319;49.204;8.116;2023-02-28T12:29:11;6.38;;;3.10;;
24163;SDS011;12319;49.204;8.116;2023-02-28T12:31:44;8.13;;;4.30;;
24163;SDS011;12319;49.204;8.116;2023-02-28T12:34:16;6.97;;;3.60;;
24163;SDS011;12319;49.204;8.116;2023-02-28T12:36:45;10.65;;;4.75;;
24163;SDS011;12319;49.204;8.116;2023-02-28T12:39:17;6.70;;;3.70;;
24163;SDS011;12319;49.204;8.116;2023-02-28T12:41:49;7.28;;;3.50;;
24163;SDS011;12319;49.204;8.116;2023-02-28T12:44:30;6.45;;;3.22;;
24163;SDS011;12319;49.204;8.116;2023-02-28T12:47:03;6.72;;;3.78;;
24163;SDS011;12319;49.204;8.116;2023-02-28T12:49:38;6.88;;;3.78;;
24163;SDS011;12319;49.204;8.116;2023-02-28T12:52:09;9.07;;;3.83;;
24163;SDS011;12319;49.204;8.116;2023-02-28T12:54:56;8.10;;;4.30;;
24163;SDS011;12319;49.204;8.116;2023-02-28T13:00:20;9.05;;;4.35;;
24163;SDS011;12319;49.204;8.116;2023-02-28T13:08:23;9.43;;;4.20;;
24163;SDS011;12319;49.204;8.116;2023-02-28T13:11:25;5.93;;;3.00;;
24163;SDS011;12319;49.204;8.116;2023-02-28T13:14:06;5.72;;;2.58;;
24163;SDS011;12319;49.204;8.116;2023-02-28T13:19:20;6.57;;;3.23;;
24163;SDS011;12319;49.204;8.116;2023-02-28T13:21:48;7.45;;;3.28;;
24163;SDS011;12319;49.204;8.116;2023-02-28T13:34:30;8.35;;;3.60;;
24163;SDS011;12319;49.204;8.116;2023-02-28T13:39:57;9.30;;;4.80;;
24163;SDS011;12319;49.204;8.116;2023-02-28T13:42:48;9.80;;;4.00;;
24163;SDS011;12319;49.204;8.116;2023-02-28T13:45:22;6.82;;;3.70;;
24163;SDS011;12319;49.204;8.116;2023-02-28T13:47:56;6.15;;;3.10;;
24163;SDS011;12319;49.204;8.116;2023-02-28T13:50:27;7.88;;;4.00;;
24163;SDS011;12319;49.204;8.116;2023-02-28T13:53:03;7.20;;;3.37;;
24163;SDS011;12319;49.204;8.116;2023-02-28T13:58:46;7.32;;;4.10;;
24163;SDS011;12319;49.204;8.116;2023-02-28T14:06:39;7.33;;;3.17;;
24163;SDS011;12319;49.204;8.116;2023-02-28T14:09:24;7.55;;;3.70;;
24163;SDS011;12319;49.204;8.116;2023-02-28T14:11:55;8.50;;;4.28;;
24163;SDS011;12319;49.204;8.116;2023-02-28T14:17:06;7.18;;;3.40;;
24163;SDS011;12319;49.204;8.116;2023-02-28T14:19:37;6.63;;;3.00;;
24163;SDS011;12319;49.204;8.116;2023-02-28T14:25:20;8.48;;;3.58;;
24163;SDS011;12319;49.204;8.116;2023-02-28T14:27:58;8.38;;;3.63;;
24163;SDS011;12319;49.204;8.116;2023-02-28T14:33:25;5.23;;;2.60;;
24163;SDS011;12319;49.204;8.116;2023-02-28T14:38:25;5.72;;;2.78;;
24163;SDS011;12319;49.204;8.116;2023-02-28T14:41:28;9.65;;;4.32;;
24163;SDS011;12319;49.204;8.116;2023-02-28T14:43:56;8.82;;;4.40;;
24163;SDS011;12319;49.204;8.116;2023-02-28T14:46:23;6.57;;;3.00;;
24163;SDS011;12319;49.204;8.116;2023-02-28T14:48:53;5.50;;;2.90;;
24163;SDS011;12319;49.204;8.116;2023-02-28T14:51:22;5.30;;;2.63;;
24163;SDS011;12319;49.204;8.116;2023-02-28T14:53:56;4.65;;;2.42;;
24163;SDS011;12319;49.204;8.116;2023-02-28T14:56:25;5.40;;;2.50;;
24163;SDS011;12319;49.204;8.116;2023-02-28T14:58:59;7.25;;;3.00;;
24163;SDS011;12319;49.204;8.116;2023-02-28T15:01:25;4.80;;;2.30;;
24163;SDS011;12319;49.204;8.116;2023-02-28T15:04:04;5.53;;;3.07;;
24163;SDS011;12319;49.204;8.116;2023-02-28T15:06:31;5.53;;;2.80;;
24163;SDS011;12319;49.204;8.116;2023-02-28T15:09:08;5.05;;;2.47;;
24163;SDS011;12319;49.204;8.116;2023-02-28T15:11:38;5.03;;;2.50;;
24163;SDS011;12319;49.204;8.116;2023-02-28T15:14:04;6.82;;;2.80;;
24163;SDS011;12319;49.204;8.116;2023-02-28T15:16:37;7.13;;;3.07;;
24163;SDS011;12319;49.204;8.116;2023-02-28T15:19:14;5.38;;;2.97;;
24163;SDS011;12319;49.204;8.116;2023-02-28T15:21:48;11.02;;;4.47;;
24163;SDS011;12319;49.204;8.116;2023-02-28T15:24:21;6.67;;;3.40;;
24163;SDS011;12319;49.204;8.116;2023-02-28T15:26:59;7.43;;;3.88;;
24163;SDS011;12319;49.204;8.116;2023-02-28T15:29:28;5.90;;;3.40;;
24163;SDS011;12319;49.204;8.116;2023-02-28T15:32:07;7.18;;;3.40;;
24163;SDS011;12319;49.204;8.116;2023-02-28T15:34:49;7.90;;;3.80;;
24163;SDS011;12319;49.204;8.116;2023-02-28T15:48:36;6.03;;;3.03;;
24163;SDS011;12319;49.204;8.116;2023-02-28T15:51:33;6.20;;;2.85;;
24163;SDS011;12319;49.204;8.116;2023-02-28T15:54:05;7.80;;;3.85;;
24163;SDS011;12319;49.204;8.116;2023-02-28T15:56:42;6.72;;;3.00;;
24163;SDS011;12319;49.204;8.116;2023-02-28T15:59:26;6.27;;;2.87;;
24163;SDS011;12319;49.204;8.116;2023-02-28T16:02:04;5.78;;;2.70;;
24163;SDS011;12319;49.204;8.116;2023-02-28T16:04:54;6.68;;;3.42;;
24163;SDS011;12319;49.204;8.116;2023-02-28T16:07:26;6.75;;;3.00;;
24163;SDS011;12319;49.204;8.116;2023-02-28T16:09:52;6.03;;;2.63;;
24163;SDS011;12319;49.204;8.116;2023-02-28T16:12:18;6.78;;;2.83;;
24163;SDS011;12319;49.204;8.116;2023-02-28T16:14:45;5.57;;;2.50;;
24163;SDS011;12319;49.204;8.116;2023-02-28T16:17:22;5.97;;;2.78;;
24163;SDS011;12319;49.204;8.116;2023-02-28T16:19:50;6.20;;;3.08;;
24163;SDS011;12319;49.204;8.116;2023-02-28T16:22:16;7.33;;;3.53;;
24163;SDS011;12319;49.204;8.116;2023-02-28T16:24:42;7.32;;;3.28;;
24163;SDS011;12319;49.204;8.116;2023-02-28T16:27:10;6.60;;;3.40;;
24163;SDS011;12319;49.204;8.116;2023-02-28T16:29:46;5.72;;;2.70;;
24163;SDS011;12319;49.204;8.116;2023-02-28T16:32:14;6.67;;;3.20;;
24163;SDS011;12319;49.204;8.116;2023-02-28T16:34:40;7.20;;;2.85;;
24163;SDS011;12319;49.204;8.116;2023-02-28T16:37:11;5.88;;;2.67;;
24163;SDS011;12319;49.204;8.116;2023-02-28T16:39:41;6.63;;;3.00;;
24163;SDS011;12319;49.204;8.116;2023-02-28T16:42:15;6.20;;;3.10;;
24163;SDS011;12319;49.204;8.116;2023-02-28T16:44:46;5.50;;;2.40;;
24163;SDS011;12319;49.204;8.116;2023-02-28T16:47:12;4.10;;;2.03;;
24163;SDS011;12319;49.204;8.116;2023-02-28T16:49:38;5.20;;;2.47;;
24163;SDS011;12319;49.204;8.116;2023-02-28T16:52:06;6.10;;;2.53;;
24163;SDS011;12319;49.204;8.116;2023-02-28T16:54:32;6.93;;;3.15;;
24163;SDS011;12319;49.204;8.116;2023-02-28T16:56:58;5.05;;;2.70;;
24163;SDS011;12319;49.204;8.116;2023-02-28T16:59:24;6.67;;;3.13;;
24163;SDS011;12319;49.204;8.116;2023-02-28T17:01:52;4.72;;;2.25;;
24163;SDS011;12319;49.204;8.116;2023-02-28T17:04:18;5.85;;;2.60;;
24163;SDS011;12319;49.204;8.116;2023-02-28T17:06:43;5.27;;;2.70;;
24163;SDS011;12319;49.204;8.116;2023-02-28T17:09:19;4.63;;;2.08;;
24163;SDS011;12319;49.204;8.116;2023-02-28T17:11:46;5.53;;;2.08;;
24163;SDS011;12319;49.204;8.116;2023-02-28T17:14:12;5.10;;;2.63;;
24163;SDS011;12319;49.204;8.116;2023-02-28T17:16:38;6.07;;;2.55;;
24163;SDS011;12319;49.204;8.116;2023-02-28T17:19:06;5.68;;;2.40;;
24163;SDS011;12319;49.204;8.116;2023-02-28T17:21:35;6.03;;;2.45;;
24163;SDS011;12319;49.204;8.116;2023-02-28T17:24:01;5.90;;;2.70;;
24163;SDS011;12319;49.204;8.116;2023-02-28T17:26:27;5.82;;;2.35;;
24163;SDS011;12319;49.204;8.116;2023-02-28T17:28:53;6.17;;;2.87;;